sensor_id;sensor_type;location;lat;lon;timestamp;P1;durP1;ratioP1;P2;durP2;ratioP2
54897;SDS011;40800;52.704;6.398;2022-11-18T00:01:29;25.35;;;23.20;;
54897;SDS011;40800;52.704;6.398;2022-11-18T00:03:55;25.55;;;23.15;;
54897;SDS011;40800;52.704;6.398;2022-11-18T00:06:22;25.45;;;23.17;;
54897;SDS011;40800;52.704;6.398;2022-11-18T00:08:50;25.63;;;23.63;;
54897;SDS011;40800;52.704;6.398;2022-11-18T00:11:20;25.80;;;23.55;;
54897;SDS011;40800;52.704;6.398;2022-11-18T00:14:10;25.77;;;23.58;;
54897;SDS011;40800;52.704;6.398;2022-11-18T00:16:48;26.02;;;23.50;;
54897;SDS011;40800;52.704;6.398;2022-11-18T00:19:15;26.38;;;23.88;;
54897;SDS011;40800;52.704;6.398;2022-11-18T00:21:41;25.05;;;22.95;;
54897;SDS011;40800;52.704;6.398;2022-11-18T00:24:07;26.15;;;23.83;;
54897;SDS011;40800;52.704;6.398;2022-11-18T00:26:33;26.27;;;23.83;;
54897;SDS011;40800;52.704;6.398;2022-11-18T00:29:00;26.77;;;24.58;;
54897;SDS011;40800;52.704;6.398;2022-11-18T00:31:25;25.95;;;23.70;;
54897;SDS011;40800;52.704;6.398;2022-11-18T00:33:51;25.77;;;23.65;;
54897;SDS011;40800;52.704;6.398;2022-11-18T00:36:16;26.20;;;23.98;;
54897;SDS011;40800;52.704;6.398;2022-11-18T00:38:42;29.30;;;24.10;;
54897;SDS011;40800;52.704;6.398;2022-11-18T00:41:08;25.70;;;23.70;;
54897;SDS011;40800;52.704;6.398;2022-11-18T00:43:36;27.13;;;24.92;;
54897;SDS011;40800;52.704;6.398;2022-11-18T00:46:02;28.42;;;26.00;;
54897;SDS011;40800;52.704;6.398;2022-11-18T00:48:29;28.20;;;25.70;;
54897;SDS011;40800;52.704;6.398;2022-11-18T00:50:55;29.63;;;26.90;;
54897;SDS011;40800;52.704;6.398;2022-11-18T00:53:23;29.25;;;26.75;;
54897;SDS011;40800;52.704;6.398;2022-11-18T00:58:15;31.75;;;28.98;;
54897;SDS011;40800;52.704;6.398;2022-11-18T01:00:41;33.75;;;30.40;;
54897;SDS011;40800;52.704;6.398;2022-11-18T01:05:35;35.60;;;32.13;;
54897;SDS011;40800;52.704;6.398;2022-11-18T01:08:01;35.15;;;31.77;;
54897;SDS011;40800;52.704;6.398;2022-11-18T01:10:27;35.97;;;32.35;;
54897;SDS011;40800;52.704;6.398;2022-11-18T01:12:53;37.40;;;33.72;;
54897;SDS011;40800;52.704;6.398;2022-11-18T01:15:40;39.25;;;35.25;;
54897;SDS011;40800;52.704;6.398;2022-11-18T01:18:07;40.67;;;36.40;;
54897;SDS011;40800;52.704;6.398;2022-11-18T01:20:33;39.90;;;35.58;;
54897;SDS011;40800;52.704;6.398;2022-11-18T01:22:59;41.75;;;37.45;;
54897;SDS011;40800;52.704;6.398;2022-11-18T01:25:25;44.15;;;39.35;;
54897;SDS011;40800;52.704;6.398;2022-11-18T01:27:51;44.00;;;39.20;;
54897;SDS011;40800;52.704;6.398;2022-11-18T01:30:17;45.92;;;39.35;;
54897;SDS011;40800;52.704;6.398;2022-11-18T01:32:43;45.15;;;40.33;;
54897;SDS011;40800;52.704;6.398;2022-11-18T01:35:09;47.47;;;41.22;;
54897;SDS011;40800;52.704;6.398;2022-11-18T01:37:35;46.45;;;41.20;;
54897;SDS011;40800;52.704;6.398;2022-11-18T01:40:01;45.28;;;40.40;;
54897;SDS011;40800;52.704;6.398;2022-11-18T01:42:28;45.42;;;40.05;;
54897;SDS011;40800;52.704;6.398;2022-11-18T01:44:58;43.35;;;38.47;;
54897;SDS011;40800;52.704;6.398;2022-11-18T01:47:39;47.83;;;40.53;;
54897;SDS011;40800;52.704;6.398;2022-11-18T01:50:09;45.35;;;39.60;;
54897;SDS011;40800;52.704;6.398;2022-11-18T01:52:36;44.50;;;39.70;;
54897;SDS011;40800;52.704;6.398;2022-11-18T01:55:06;46.85;;;40.75;;
54897;SDS011;40800;52.704;6.398;2022-11-18T01:57:36;46.78;;;41.70;;
54897;SDS011;40800;52.704;6.398;2022-11-18T02:00:03;49.47;;;42.70;;
54897;SDS011;40800;52.704;6.398;2022-11-18T02:02:31;52.20;;;41.97;;
54897;SDS011;40800;52.704;6.398;2022-11-18T02:04:58;53.45;;;42.28;;
54897;SDS011;40800;52.704;6.398;2022-11-18T02:07:26;50.47;;;43.05;;
54897;SDS011;40800;52.704;6.398;2022-11-18T02:09:52;51.25;;;41.85;;
54897;SDS011;40800;52.704;6.398;2022-11-18T02:12:19;55.92;;;43.10;;
54897;SDS011;40800;52.704;6.398;2022-11-18T02:14:45;51.97;;;43.33;;
54897;SDS011;40800;52.704;6.398;2022-11-18T02:20:44;57.00;;;44.45;;
54897;SDS011;40800;52.704;6.398;2022-11-18T02:23:07;59.30;;;44.45;;
54897;SDS011;40800;52.704;6.398;2022-11-18T02:31:46;54.17;;;43.60;;
54897;SDS011;40800;52.704;6.398;2022-11-18T02:34:17;54.58;;;42.47;;
54897;SDS011;40800;52.704;6.398;2022-11-18T02:37:24;56.85;;;43.45;;
54897;SDS011;40800;52.704;6.398;2022-11-18T02:40:04;52.75;;;42.30;;
54897;SDS011;40800;52.704;6.398;2022-11-18T02:42:40;55.72;;;45.40;;
54897;SDS011;40800;52.704;6.398;2022-11-18T02:45:14;51.42;;;43.15;;
54897;SDS011;40800;52.704;6.398;2022-11-18T02:47:42;55.53;;;42.97;;
54897;SDS011;40800;52.704;6.398;2022-11-18T02:50:11;54.85;;;42.65;;
54897;SDS011;40800;52.704;6.398;2022-11-18T02:52:40;52.38;;;42.53;;
54897;SDS011;40800;52.704;6.398;2022-11-18T02:55:09;51.55;;;43.13;;
54897;SDS011;40800;52.704;6.398;2022-11-18T02:57:38;52.67;;;41.17;;
54897;SDS011;40800;52.704;6.398;2022-11-18T03:00:05;53.78;;;42.15;;
54897;SDS011;40800;52.704;6.398;2022-11-18T03:02:38;54.58;;;43.55;;
54897;SDS011;40800;52.704;6.398;2022-11-18T03:05:10;52.40;;;41.75;;
54897;SDS011;40800;52.704;6.398;2022-11-18T03:07:42;51.72;;;41.67;;
54897;SDS011;40800;52.704;6.398;2022-11-18T03:10:09;55.13;;;43.60;;
54897;SDS011;40800;52.704;6.398;2022-11-18T03:12:42;56.00;;;44.25;;
54897;SDS011;40800;52.704;6.398;2022-11-18T03:20:26;63.13;;;47.25;;
54897;SDS011;40800;52.704;6.398;2022-11-18T03:23:06;67.82;;;50.40;;
54897;SDS011;40800;52.704;6.398;2022-11-18T03:25:40;68.72;;;50.72;;
54897;SDS011;40800;52.704;6.398;2022-11-18T03:28:30;73.53;;;51.78;;
54897;SDS011;40800;52.704;6.398;2022-11-18T03:31:02;70.18;;;53.45;;
54897;SDS011;40800;52.704;6.398;2022-11-18T03:33:49;71.03;;;51.95;;
54897;SDS011;40800;52.704;6.398;2022-11-18T03:36:18;72.97;;;52.17;;
54897;SDS011;40800;52.704;6.398;2022-11-18T03:38:47;72.93;;;51.45;;
54897;SDS011;40800;52.704;6.398;2022-11-18T03:41:16;74.68;;;54.30;;
54897;SDS011;40800;52.704;6.398;2022-11-18T03:43:48;71.65;;;52.03;;
54897;SDS011;40800;52.704;6.398;2022-11-18T03:46:43;70.25;;;51.63;;
54897;SDS011;40800;52.704;6.398;2022-11-18T03:49:14;72.32;;;51.80;;
54897;SDS011;40800;52.704;6.398;2022-11-18T03:51:47;70.82;;;51.25;;
54897;SDS011;40800;52.704;6.398;2022-11-18T03:54:19;68.07;;;51.78;;
54897;SDS011;40800;52.704;6.398;2022-11-18T03:56:48;72.10;;;52.83;;
54897;SDS011;40800;52.704;6.398;2022-11-18T03:59:45;72.15;;;51.53;;
54897;SDS011;40800;52.704;6.398;2022-11-18T04:02:16;70.43;;;51.30;;
54897;SDS011;40800;52.704;6.398;2022-11-18T04:04:45;74.85;;;50.65;;
54897;SDS011;40800;52.704;6.398;2022-11-18T04:07:21;70.10;;;51.65;;
54897;SDS011;40800;52.704;6.398;2022-11-18T04:09:54;73.25;;;50.58;;
54897;SDS011;40800;52.704;6.398;2022-11-18T04:12:22;72.43;;;50.92;;
54897;SDS011;40800;52.704;6.398;2022-11-18T04:14:52;64.93;;;48.42;;
54897;SDS011;40800;52.704;6.398;2022-11-18T04:17:20;68.80;;;50.35;;
54897;SDS011;40800;52.704;6.398;2022-11-18T04:19:47;69.25;;;51.35;;
54897;SDS011;40800;52.704;6.398;2022-11-18T04:22:13;67.40;;;50.03;;
54897;SDS011;40800;52.704;6.398;2022-11-18T04:24:39;64.10;;;47.75;;
54897;SDS011;40800;52.704;6.398;2022-11-18T04:27:05;67.47;;;50.15;;
54897;SDS011;40800;52.704;6.398;2022-11-18T04:29:31;73.37;;;51.90;;
54897;SDS011;40800;52.704;6.398;2022-11-18T04:31:57;73.00;;;51.38;;
54897;SDS011;40800;52.704;6.398;2022-11-18T04:34:26;67.75;;;50.13;;
54897;SDS011;40800;52.704;6.398;2022-11-18T04:36:52;69.05;;;50.88;;
54897;SDS011;40800;52.704;6.398;2022-11-18T04:39:18;77.15;;;52.83;;
54897;SDS011;40800;52.704;6.398;2022-11-18T04:41:44;65.75;;;49.13;;
54897;SDS011;40800;52.704;6.398;2022-11-18T04:46:48;59.53;;;46.92;;
54897;SDS011;40800;52.704;6.398;2022-11-18T04:49:14;62.25;;;48.75;;
54897;SDS011;40800;52.704;6.398;2022-11-18T04:51:40;57.03;;;44.13;;
54897;SDS011;40800;52.704;6.398;2022-11-18T04:54:07;57.13;;;44.55;;
54897;SDS011;40800;52.704;6.398;2022-11-18T04:56:34;53.45;;;42.72;;
54897;SDS011;40800;52.704;6.398;2022-11-18T04:59:02;60.03;;;44.90;;
54897;SDS011;40800;52.704;6.398;2022-11-18T05:01:29;55.53;;;44.70;;
54897;SDS011;40800;52.704;6.398;2022-11-18T05:03:55;54.57;;;43.63;;
54897;SDS011;40800;52.704;6.398;2022-11-18T05:06:21;54.00;;;43.72;;
54897;SDS011;40800;52.704;6.398;2022-11-18T05:08:47;51.27;;;43.10;;
54897;SDS011;40800;52.704;6.398;2022-11-18T05:11:13;47.63;;;41.58;;
54897;SDS011;40800;52.704;6.398;2022-11-18T05:13:57;47.38;;;40.88;;
54897;SDS011;40800;52.704;6.398;2022-11-18T05:16:22;49.63;;;42.22;;
54897;SDS011;40800;52.704;6.398;2022-11-18T05:18:48;46.35;;;39.97;;
54897;SDS011;40800;52.704;6.398;2022-11-18T05:21:14;49.35;;;41.08;;
54897;SDS011;40800;52.704;6.398;2022-11-18T05:23:39;46.10;;;39.25;;
54897;SDS011;40800;52.704;6.398;2022-11-18T05:26:05;50.95;;;40.00;;
54897;SDS011;40800;52.704;6.398;2022-11-18T05:28:32;45.53;;;39.08;;
54897;SDS011;40800;52.704;6.398;2022-11-18T05:30:57;48.25;;;40.42;;
54897;SDS011;40800;52.704;6.398;2022-11-18T05:33:23;47.00;;;40.50;;
54897;SDS011;40800;52.704;6.398;2022-11-18T05:35:49;48.63;;;40.35;;
54897;SDS011;40800;52.704;6.398;2022-11-18T05:38:14;52.05;;;41.50;;
54897;SDS011;40800;52.704;6.398;2022-11-18T05:40:43;43.63;;;37.92;;
54897;SDS011;40800;52.704;6.398;2022-11-18T05:43:09;44.88;;;38.78;;
54897;SDS011;40800;52.704;6.398;2022-11-18T05:45:35;49.03;;;40.47;;
54897;SDS011;40800;52.704;6.398;2022-11-18T05:48:00;49.63;;;40.13;;
54897;SDS011;40800;52.704;6.398;2022-11-18T05:50:28;48.78;;;40.38;;
54897;SDS011;40800;52.704;6.398;2022-11-18T05:52:57;53.80;;;44.08;;
54897;SDS011;40800;52.704;6.398;2022-11-18T05:55:24;55.10;;;42.50;;
54897;SDS011;40800;52.704;6.398;2022-11-18T05:57:57;51.70;;;42.88;;
54897;SDS011;40800;52.704;6.398;2022-11-18T06:00:22;54.63;;;44.75;;
54897;SDS011;40800;52.704;6.398;2022-11-18T06:02:48;52.88;;;43.20;;
54897;SDS011;40800;52.704;6.398;2022-11-18T06:05:16;49.25;;;42.38;;
54897;SDS011;40800;52.704;6.398;2022-11-18T06:07:43;56.08;;;44.25;;
54897;SDS011;40800;52.704;6.398;2022-11-18T06:10:11;52.35;;;44.17;;
54897;SDS011;40800;52.704;6.398;2022-11-18T06:12:45;60.05;;;45.60;;
54897;SDS011;40800;52.704;6.398;2022-11-18T06:15:15;56.67;;;44.92;;
54897;SDS011;40800;52.704;6.398;2022-11-18T06:17:59;57.40;;;47.15;;
54897;SDS011;40800;52.704;6.398;2022-11-18T06:20:32;62.03;;;46.55;;
54897;SDS011;40800;52.704;6.398;2022-11-18T06:23:02;60.78;;;45.42;;
54897;SDS011;40800;52.704;6.398;2022-11-18T06:25:27;63.63;;;47.75;;
54897;SDS011;40800;52.704;6.398;2022-11-18T06:27:54;61.42;;;47.45;;
54897;SDS011;40800;52.704;6.398;2022-11-18T06:30:23;63.00;;;47.75;;
54897;SDS011;40800;52.704;6.398;2022-11-18T06:32:48;65.45;;;48.78;;
54897;SDS011;40800;52.704;6.398;2022-11-18T06:35:14;61.95;;;47.25;;
54897;SDS011;40800;52.704;6.398;2022-11-18T06:37:39;67.15;;;49.42;;
54897;SDS011;40800;52.704;6.398;2022-11-18T06:40:05;58.90;;;46.47;;
54897;SDS011;40800;52.704;6.398;2022-11-18T06:42:31;60.30;;;47.13;;
54897;SDS011;40800;52.704;6.398;2022-11-18T06:45:15;61.25;;;46.92;;
54897;SDS011;40800;52.704;6.398;2022-11-18T06:47:41;58.00;;;46.45;;
54897;SDS011;40800;52.704;6.398;2022-11-18T06:50:06;58.72;;;46.60;;
54897;SDS011;40800;52.704;6.398;2022-11-18T06:52:32;68.78;;;48.40;;
54897;SDS011;40800;52.704;6.398;2022-11-18T06:54:58;59.20;;;47.50;;
54897;SDS011;40800;52.704;6.398;2022-11-18T06:57:23;61.80;;;47.30;;
54897;SDS011;40800;52.704;6.398;2022-11-18T06:59:49;63.17;;;46.50;;
54897;SDS011;40800;52.704;6.398;2022-11-18T07:02:14;62.65;;;47.67;;
54897;SDS011;40800;52.704;6.398;2022-11-18T07:04:42;63.63;;;48.38;;
54897;SDS011;40800;52.704;6.398;2022-11-18T07:07:08;62.97;;;47.63;;
54897;SDS011;40800;52.704;6.398;2022-11-18T07:09:34;61.92;;;47.00;;
54897;SDS011;40800;52.704;6.398;2022-11-18T07:12:00;57.83;;;44.58;;
54897;SDS011;40800;52.704;6.398;2022-11-18T07:14:26;57.25;;;44.55;;
54897;SDS011;40800;52.704;6.398;2022-11-18T07:16:51;56.75;;;44.88;;
54897;SDS011;40800;52.704;6.398;2022-11-18T07:19:17;61.08;;;45.65;;
54897;SDS011;40800;52.704;6.398;2022-11-18T07:21:42;62.20;;;46.50;;
54897;SDS011;40800;52.704;6.398;2022-11-18T07:24:10;56.97;;;44.47;;
54897;SDS011;40800;52.704;6.398;2022-11-18T07:26:37;58.25;;;44.90;;
54897;SDS011;40800;52.704;6.398;2022-11-18T07:29:03;54.53;;;43.47;;
54897;SDS011;40800;52.704;6.398;2022-11-18T07:31:28;56.42;;;44.08;;
54897;SDS011;40800;52.704;6.398;2022-11-18T07:33:54;57.33;;;43.03;;
54897;SDS011;40800;52.704;6.398;2022-11-18T07:36:21;53.70;;;41.63;;
54897;SDS011;40800;52.704;6.398;2022-11-18T07:38:48;53.70;;;41.83;;
54897;SDS011;40800;52.704;6.398;2022-11-18T07:41:15;54.85;;;43.78;;
54897;SDS011;40800;52.704;6.398;2022-11-18T07:43:46;53.63;;;42.40;;
54897;SDS011;40800;52.704;6.398;2022-11-18T07:48:49;51.25;;;41.72;;
54897;SDS011;40800;52.704;6.398;2022-11-18T07:51:17;54.38;;;42.53;;
54897;SDS011;40800;52.704;6.398;2022-11-18T07:53:44;53.28;;;42.13;;
54897;SDS011;40800;52.704;6.398;2022-11-18T07:56:10;51.67;;;41.47;;
54897;SDS011;40800;52.704;6.398;2022-11-18T07:58:36;53.78;;;44.05;;
54897;SDS011;40800;52.704;6.398;2022-11-18T08:01:06;49.72;;;40.03;;
54897;SDS011;40800;52.704;6.398;2022-11-18T08:03:52;51.67;;;41.30;;
54897;SDS011;40800;52.704;6.398;2022-11-18T08:06:18;46.80;;;39.88;;
54897;SDS011;40800;52.704;6.398;2022-11-18T08:08:44;43.75;;;37.38;;
54897;SDS011;40800;52.704;6.398;2022-11-18T08:11:11;47.83;;;39.58;;
54897;SDS011;40800;52.704;6.398;2022-11-18T08:13:43;49.42;;;39.22;;
54897;SDS011;40800;52.704;6.398;2022-11-18T08:16:12;44.72;;;37.67;;
54897;SDS011;40800;52.704;6.398;2022-11-18T08:18:42;49.47;;;37.90;;
54897;SDS011;40800;52.704;6.398;2022-11-18T08:21:08;47.75;;;38.10;;
54897;SDS011;40800;52.704;6.398;2022-11-18T08:23:34;45.50;;;38.28;;
54897;SDS011;40800;52.704;6.398;2022-11-18T08:26:01;43.85;;;37.78;;
54897;SDS011;40800;52.704;6.398;2022-11-18T08:28:32;45.40;;;38.75;;
54897;SDS011;40800;52.704;6.398;2022-11-18T08:30:58;41.80;;;37.22;;
54897;SDS011;40800;52.704;6.398;2022-11-18T08:33:24;44.80;;;36.75;;
54897;SDS011;40800;52.704;6.398;2022-11-18T08:35:50;45.90;;;37.70;;
54897;SDS011;40800;52.704;6.398;2022-11-18T08:38:16;44.42;;;37.03;;
54897;SDS011;40800;52.704;6.398;2022-11-18T08:40:43;44.30;;;37.67;;
54897;SDS011;40800;52.704;6.398;2022-11-18T08:43:11;43.90;;;37.97;;
54897;SDS011;40800;52.704;6.398;2022-11-18T08:45:38;42.72;;;36.97;;
54897;SDS011;40800;52.704;6.398;2022-11-18T08:48:04;41.25;;;35.30;;
54897;SDS011;40800;52.704;6.398;2022-11-18T08:50:30;38.85;;;34.70;;
54897;SDS011;40800;52.704;6.398;2022-11-18T08:52:55;38.47;;;34.05;;
54897;SDS011;40800;52.704;6.398;2022-11-18T08:55:21;38.92;;;32.55;;
54897;SDS011;40800;52.704;6.398;2022-11-18T08:57:46;39.20;;;34.97;;
54897;SDS011;40800;52.704;6.398;2022-11-18T09:00:12;37.83;;;33.83;;
54897;SDS011;40800;52.704;6.398;2022-11-18T09:02:38;37.95;;;33.85;;
54897;SDS011;40800;52.704;6.398;2022-11-18T09:05:04;37.78;;;33.15;;
54897;SDS011;40800;52.704;6.398;2022-11-18T09:07:30;39.05;;;34.33;;
54897;SDS011;40800;52.704;6.398;2022-11-18T09:09:55;39.63;;;34.33;;
54897;SDS011;40800;52.704;6.398;2022-11-18T09:12:21;39.63;;;34.80;;
54897;SDS011;40800;52.704;6.398;2022-11-18T09:14:46;42.60;;;35.70;;
54897;SDS011;40800;52.704;6.398;2022-11-18T09:17:12;40.85;;;35.80;;
54897;SDS011;40800;52.704;6.398;2022-11-18T09:19:39;38.17;;;34.00;;
54897;SDS011;40800;52.704;6.398;2022-11-18T09:22:05;38.95;;;34.13;;
54897;SDS011;40800;52.704;6.398;2022-11-18T09:24:31;40.07;;;35.67;;
54897;SDS011;40800;52.704;6.398;2022-11-18T09:26:57;39.20;;;34.13;;
54897;SDS011;40800;52.704;6.398;2022-11-18T09:29:23;38.08;;;33.85;;
54897;SDS011;40800;52.704;6.398;2022-11-18T09:34:19;38.45;;;34.10;;
54897;SDS011;40800;52.704;6.398;2022-11-18T09:36:44;40.28;;;35.13;;
54897;SDS011;40800;52.704;6.398;2022-11-18T09:39:10;38.80;;;34.53;;
54897;SDS011;40800;52.704;6.398;2022-11-18T09:41:46;41.90;;;34.83;;
54897;SDS011;40800;52.704;6.398;2022-11-18T09:44:38;38.53;;;34.15;;
54897;SDS011;40800;52.704;6.398;2022-11-18T09:47:17;40.10;;;35.33;;
54897;SDS011;40800;52.704;6.398;2022-11-18T09:50:08;36.25;;;32.33;;
54897;SDS011;40800;52.704;6.398;2022-11-18T09:52:45;36.38;;;32.30;;
54897;SDS011;40800;52.704;6.398;2022-11-18T09:55:27;35.22;;;31.52;;
54897;SDS011;40800;52.704;6.398;2022-11-18T09:57:54;35.33;;;31.63;;
54897;SDS011;40800;52.704;6.398;2022-11-18T10:00:22;34.53;;;30.92;;
54897;SDS011;40800;52.704;6.398;2022-11-18T10:02:52;34.13;;;30.45;;
54897;SDS011;40800;52.704;6.398;2022-11-18T10:05:26;35.65;;;31.60;;
54897;SDS011;40800;52.704;6.398;2022-11-18T10:18:59;34.50;;;31.00;;
54897;SDS011;40800;52.704;6.398;2022-11-18T10:21:50;34.45;;;30.15;;
54897;SDS011;40800;52.704;6.398;2022-11-18T10:24:38;36.60;;;32.22;;
54897;SDS011;40800;52.704;6.398;2022-11-18T10:27:13;37.05;;;32.83;;
54897;SDS011;40800;52.704;6.398;2022-11-18T10:29:40;37.28;;;32.72;;
54897;SDS011;40800;52.704;6.398;2022-11-18T10:32:11;37.15;;;33.22;;
54897;SDS011;40800;52.704;6.398;2022-11-18T10:34:55;35.85;;;32.10;;
54897;SDS011;40800;52.704;6.398;2022-11-18T10:37:26;35.20;;;31.33;;
54897;SDS011;40800;52.704;6.398;2022-11-18T10:39:56;37.95;;;33.38;;
54897;SDS011;40800;52.704;6.398;2022-11-18T10:42:28;38.53;;;34.03;;
54897;SDS011;40800;52.704;6.398;2022-11-18T10:47:41;37.28;;;33.08;;
54897;SDS011;40800;52.704;6.398;2022-11-18T10:50:25;41.60;;;35.47;;
54897;SDS011;40800;52.704;6.398;2022-11-18T10:52:59;38.95;;;34.22;;
54897;SDS011;40800;52.704;6.398;2022-11-18T10:55:26;39.80;;;35.50;;
54897;SDS011;40800;52.704;6.398;2022-11-18T10:57:53;40.95;;;35.85;;
54897;SDS011;40800;52.704;6.398;2022-11-18T11:08:54;40.03;;;33.67;;
54897;SDS011;40800;52.704;6.398;2022-11-18T11:11:25;37.58;;;33.58;;
54897;SDS011;40800;52.704;6.398;2022-11-18T11:14:18;37.63;;;31.80;;
54897;SDS011;40800;52.704;6.398;2022-11-18T11:16:48;34.25;;;30.42;;
54897;SDS011;40800;52.704;6.398;2022-11-18T11:22:15;37.63;;;33.72;;
54897;SDS011;40800;52.704;6.398;2022-11-18T11:24:41;36.42;;;32.63;;
54897;SDS011;40800;52.704;6.398;2022-11-18T11:27:11;38.40;;;32.45;;
54897;SDS011;40800;52.704;6.398;2022-11-18T11:30:04;35.90;;;32.03;;
54897;SDS011;40800;52.704;6.398;2022-11-18T11:33:02;34.78;;;31.13;;
54897;SDS011;40800;52.704;6.398;2022-11-18T11:50:21;27.20;;;24.52;;
54897;SDS011;40800;52.704;6.398;2022-11-18T11:55:39;25.20;;;22.90;;
54897;SDS011;40800;52.704;6.398;2022-11-18T12:00:58;24.10;;;21.80;;
54897;SDS011;40800;52.704;6.398;2022-11-18T12:03:46;26.58;;;24.10;;
54897;SDS011;40800;52.704;6.398;2022-11-18T12:06:16;26.40;;;23.90;;
54897;SDS011;40800;52.704;6.398;2022-11-18T12:08:47;24.90;;;22.50;;
54897;SDS011;40800;52.704;6.398;2022-11-18T12:11:40;24.80;;;22.40;;
54897;SDS011;40800;52.704;6.398;2022-11-18T12:14:42;23.08;;;20.90;;
54897;SDS011;40800;52.704;6.398;2022-11-18T12:17:33;22.88;;;20.67;;
54897;SDS011;40800;52.704;6.398;2022-11-18T12:23:24;22.92;;;20.88;;
54897;SDS011;40800;52.704;6.398;2022-11-18T12:25:56;23.15;;;20.90;;
54897;SDS011;40800;52.704;6.398;2022-11-18T12:33:55;22.20;;;20.10;;
54897;SDS011;40800;52.704;6.398;2022-11-18T12:36:41;20.40;;;18.60;;
54897;SDS011;40800;52.704;6.398;2022-11-18T12:41:55;21.00;;;19.05;;
54897;SDS011;40800;52.704;6.398;2022-11-18T12:44:40;20.65;;;18.85;;
54897;SDS011;40800;52.704;6.398;2022-11-18T12:47:10;20.95;;;18.90;;
54897;SDS011;40800;52.704;6.398;2022-11-18T12:54:53;21.77;;;19.77;;
54897;SDS011;40800;52.704;6.398;2022-11-18T12:57:21;21.20;;;19.20;;
54897;SDS011;40800;52.704;6.398;2022-11-18T12:59:55;20.73;;;18.67;;
54897;SDS011;40800;52.704;6.398;2022-11-18T13:02:22;20.45;;;18.58;;
54897;SDS011;40800;52.704;6.398;2022-11-18T13:07:44;20.73;;;18.83;;
54897;SDS011;40800;52.704;6.398;2022-11-18T13:10:32;22.75;;;20.67;;
54897;SDS011;40800;52.704;6.398;2022-11-18T13:13:02;22.08;;;20.08;;
54897;SDS011;40800;52.704;6.398;2022-11-18T13:18:15;24.02;;;21.50;;
54897;SDS011;40800;52.704;6.398;2022-11-18T13:20:42;25.50;;;22.88;;
54897;SDS011;40800;52.704;6.398;2022-11-18T13:23:30;24.70;;;22.35;;
54897;SDS011;40800;52.704;6.398;2022-11-18T13:26:19;24.70;;;22.23;;
54897;SDS011;40800;52.704;6.398;2022-11-18T13:29:04;24.75;;;22.02;;
54897;SDS011;40800;52.704;6.398;2022-11-18T13:34:47;24.30;;;21.95;;
54897;SDS011;40800;52.704;6.398;2022-11-18T13:37:22;23.60;;;21.38;;
54897;SDS011;40800;52.704;6.398;2022-11-18T13:39:49;24.90;;;22.45;;
54897;SDS011;40800;52.704;6.398;2022-11-18T13:42:17;24.13;;;21.77;;
54897;SDS011;40800;52.704;6.398;2022-11-18T13:44:50;23.50;;;21.30;;
54897;SDS011;40800;52.704;6.398;2022-11-18T13:47:38;24.42;;;22.02;;
54897;SDS011;40800;52.704;6.398;2022-11-18T13:55:53;24.95;;;22.45;;
54897;SDS011;40800;52.704;6.398;2022-11-18T14:01:10;24.08;;;21.67;;
54897;SDS011;40800;52.704;6.398;2022-11-18T14:03:58;24.70;;;22.17;;
54897;SDS011;40800;52.704;6.398;2022-11-18T14:06:33;25.27;;;22.63;;
54897;SDS011;40800;52.704;6.398;2022-11-18T14:12:05;26.15;;;23.48;;
54897;SDS011;40800;52.704;6.398;2022-11-18T14:14:45;25.25;;;22.65;;
54897;SDS011;40800;52.704;6.398;2022-11-18T14:17:15;25.42;;;22.65;;
54897;SDS011;40800;52.704;6.398;2022-11-18T14:19:46;26.23;;;23.45;;
54897;SDS011;40800;52.704;6.398;2022-11-18T14:22:17;26.65;;;23.75;;
54897;SDS011;40800;52.704;6.398;2022-11-18T14:24:52;25.88;;;23.10;;
54897;SDS011;40800;52.704;6.398;2022-11-18T14:27:34;25.38;;;22.70;;
54897;SDS011;40800;52.704;6.398;2022-11-18T14:35:41;24.90;;;22.40;;
54897;SDS011;40800;52.704;6.398;2022-11-18T14:38:10;25.73;;;23.08;;
54897;SDS011;40800;52.704;6.398;2022-11-18T14:40:41;25.00;;;22.33;;
54897;SDS011;40800;52.704;6.398;2022-11-18T14:43:06;24.67;;;22.05;;
54897;SDS011;40800;52.704;6.398;2022-11-18T14:45:36;25.63;;;22.77;;
54897;SDS011;40800;52.704;6.398;2022-11-18T14:48:02;26.67;;;23.90;;
54897;SDS011;40800;52.704;6.398;2022-11-18T14:50:28;26.35;;;23.52;;
54897;SDS011;40800;52.704;6.398;2022-11-18T14:52:53;24.67;;;22.08;;
54897;SDS011;40800;52.704;6.398;2022-11-18T14:55:19;24.48;;;21.92;;
54897;SDS011;40800;52.704;6.398;2022-11-18T14:57:44;25.35;;;22.77;;
54897;SDS011;40800;52.704;6.398;2022-11-18T15:00:11;25.20;;;22.48;;
54897;SDS011;40800;52.704;6.398;2022-11-18T15:02:39;25.35;;;22.75;;
54897;SDS011;40800;52.704;6.398;2022-11-18T15:05:05;25.48;;;22.75;;
54897;SDS011;40800;52.704;6.398;2022-11-18T15:07:31;25.65;;;22.85;;
54897;SDS011;40800;52.704;6.398;2022-11-18T15:09:57;24.20;;;21.45;;
54897;SDS011;40800;52.704;6.398;2022-11-18T15:12:22;24.73;;;22.13;;
54897;SDS011;40800;52.704;6.398;2022-11-18T15:14:48;25.30;;;22.70;;
54897;SDS011;40800;52.704;6.398;2022-11-18T15:17:13;27.05;;;23.98;;
54897;SDS011;40800;52.704;6.398;2022-11-18T15:19:39;27.25;;;24.25;;
54897;SDS011;40800;52.704;6.398;2022-11-18T15:22:07;27.13;;;22.95;;
54897;SDS011;40800;52.704;6.398;2022-11-18T15:24:33;26.07;;;23.33;;
54897;SDS011;40800;52.704;6.398;2022-11-18T15:26:59;27.30;;;23.60;;
54897;SDS011;40800;52.704;6.398;2022-11-18T15:29:29;25.77;;;23.10;;
54897;SDS011;40800;52.704;6.398;2022-11-18T15:31:54;24.50;;;22.00;;
54897;SDS011;40800;52.704;6.398;2022-11-18T15:34:20;24.60;;;22.13;;
54897;SDS011;40800;52.704;6.398;2022-11-18T15:36:46;35.63;;;23.00;;
54897;SDS011;40800;52.704;6.398;2022-11-18T15:39:12;24.83;;;22.33;;
54897;SDS011;40800;52.704;6.398;2022-11-18T15:41:38;23.73;;;21.30;;
54897;SDS011;40800;52.704;6.398;2022-11-18T15:44:05;23.52;;;21.10;;
54897;SDS011;40800;52.704;6.398;2022-11-18T15:46:30;23.27;;;20.83;;
54897;SDS011;40800;52.704;6.398;2022-11-18T15:48:59;26.10;;;22.95;;
54897;SDS011;40800;52.704;6.398;2022-11-18T15:51:25;24.55;;;21.70;;
54897;SDS011;40800;52.704;6.398;2022-11-18T15:53:52;25.10;;;22.50;;
54897;SDS011;40800;52.704;6.398;2022-11-18T15:58:57;25.73;;;22.85;;
54897;SDS011;40800;52.704;6.398;2022-11-18T16:01:24;25.40;;;22.70;;
54897;SDS011;40800;52.704;6.398;2022-11-18T16:03:51;24.92;;;22.20;;
54897;SDS011;40800;52.704;6.398;2022-11-18T16:06:16;25.13;;;22.42;;
54897;SDS011;40800;52.704;6.398;2022-11-18T16:08:42;25.10;;;22.60;;
54897;SDS011;40800;52.704;6.398;2022-11-18T16:11:09;24.70;;;22.20;;
54897;SDS011;40800;52.704;6.398;2022-11-18T16:14:02;25.50;;;22.90;;
54897;SDS011;40800;52.704;6.398;2022-11-18T16:16:29;26.17;;;23.42;;
54897;SDS011;40800;52.704;6.398;2022-11-18T16:18:56;25.05;;;22.55;;
54897;SDS011;40800;52.704;6.398;2022-11-18T16:21:23;26.58;;;23.83;;
54897;SDS011;40800;52.704;6.398;2022-11-18T16:23:53;26.48;;;23.75;;
54897;SDS011;40800;52.704;6.398;2022-11-18T16:26:19;24.98;;;22.42;;
54897;SDS011;40800;52.704;6.398;2022-11-18T16:28:45;25.25;;;22.65;;
54897;SDS011;40800;52.704;6.398;2022-11-18T16:31:10;24.38;;;21.73;;
54897;SDS011;40800;52.704;6.398;2022-11-18T16:33:55;25.80;;;23.13;;
54897;SDS011;40800;52.704;6.398;2022-11-18T16:36:24;24.65;;;21.90;;